Terminal Aerodrome Forecast
Issued by NWS Wilmington, OH

Current Version | Previous Version | Text Only | Print | Product List | Glossary Off
Versions: 1 2 3 4 5 6 7 8 9 10 11 12 13 14 15 16 17 18 19 20 21 22 23 24 25 26 27 28 29 30

000
FTUS41 KILN 192000 AAA
TAFCVG
TAF AMD
KCVG 192053Z 1921/2024 20010G16KT P6SM SCT040
     FM200100 23006KT P6SM VCTS BKN040CB
     FM200500 21004KT P6SM SCT040
     FM200800 22003KT 4SM BR FEW015
     FM201400 23006KT P6SM SCT040
     FM201700 27009KT P6SM BKN050=

USA.gov is the U.S. government's official web portal to all federal, state and local government web resources and services.